< < Back
Terminal Aerodrome Forecast


Current Version              Previous Versions:   1  2  3  4  5  6  7  8  9  

Terminal Aerodrome Forecast

200
FTUS42 KTAE 221700
TAFVLD
TAF
KVLD 221724Z 2218/2318 26007KT P6SM SCT050 BKN100
     FM230000 23003KT P6SM BKN050 BKN100
     FM230900 35003KT 4SM BR OVC004
      TEMPO 2312/2314 00000KT 2SM BR OVC001
     FM231500 35005KT P6SM SCT250=



Latest METAR

274
SAUS70 KWBC 231100 RRC
MTRVLD
METAR KVLD 231053Z 00000KT 4SM HZ CLR 16/13 A2991 RMK AO2 SLP133
T01560128


USA.gov is the U.S. government's official web portal to all federal, state and local government web resources and services.